Time;durP1;ratioP1;P1;durP2;ratioP2;P2;SDS_P1;SDS_P2;PMS_P1;PMS_P2;Temp;Humidity;BMP_temperature;BMP_pressure;BME280_temperature;BME280_humidity;BME280_pressure;Samples;Min_cycle;Max_cycle;Signal;HPM_P1;HPM_P2
2022/11/21 00:00:44;;;;;;;6.53;4.70;;;;;;;18.29;45.99;99914.08;1751882;80;21111;-81
2022/11/21 00:03:10;;;;;;;5.58;4.58;;;;;;;18.29;45.97;99913.30;1751648;80;21820;-80
2022/11/21 00:05:42;;;;;;;8.28;5.58;;;;;;;18.28;45.98;99895.97;1751544;80;21267;-80
2022/11/21 00:08:11;;;;;;;7.60;4.78;;;;;;;18.29;45.98;99883.02;1751672;81;21526;-81
2022/11/21 00:10:44;;;;;;;5.60;4.55;;;;;;;18.28;45.98;99868.43;1751481;80;21017;-81
2022/11/21 00:13:18;;;;;;;6.35;4.58;;;;;;;18.27;46.00;99872.31;1751513;80;21634;-80
2022/11/21 00:15:45;;;;;;;6.08;4.90;;;;;;;18.27;46.01;99866.80;1751650;80;21125;-81
2022/11/21 00:18:11;;;;;;;6.55;4.75;;;;;;;18.27;46.00;99861.30;1781144;78;21609;-80
2022/11/21 00:20:39;;;;;;;6.40;4.58;;;;;;;18.28;46.00;99857.98;1751867;80;21016;-81
2022/11/21 00:23:05;;;;;;;5.80;4.42;;;;;;;18.26;46.01;99852.22;1751725;80;21096;-81
2022/11/21 00:25:31;;;;;;;6.37;4.30;;;;;;;18.25;46.03;99860.23;1751492;80;21083;-80
2022/11/21 00:27:57;;;;;;;6.85;4.62;;;;;;;18.26;46.03;99866.55;1756177;80;21442;-81
2022/11/21 00:30:24;;;;;;;6.42;4.25;;;;;;;18.26;46.04;99872.06;1763268;81;21036;-81
2022/11/21 00:32:50;;;;;;;5.67;4.50;;;;;;;18.26;46.03;99883.89;1745479;81;20906;-80
2022/11/21 00:35:16;;;;;;;6.25;5.17;;;;;;;18.25;46.04;99885.02;1771142;80;21032;-80
2022/11/21 00:37:43;;;;;;;6.12;4.30;;;;;;;18.24;46.04;99877.91;1763310;81;21116;-80
2022/11/21 00:40:10;;;;;;;6.28;4.30;;;;;;;18.25;46.04;99840.96;1763063;81;21099;-79
2022/11/21 00:42:37;;;;;;;5.90;4.42;;;;;;;18.24;46.01;99830.30;1763141;80;21089;-80
2022/11/21 00:45:04;;;;;;;5.78;4.03;;;;;;;18.25;46.03;99817.56;1763220;80;21451;-80
2022/11/21 00:47:30;;;;;;;6.72;4.55;;;;;;;18.25;46.03;99818.13;1763023;81;21045;-81
2022/11/21 00:49:56;;;;;;;5.33;4.25;;;;;;;18.25;46.02;99796.09;1721196;81;21081;-81
2022/11/21 00:52:23;;;;;;;6.28;4.75;;;;;;;18.25;46.03;99795.53;1763324;81;20972;-81
2022/11/21 00:54:49;;;;;;;5.55;4.20;;;;;;;18.23;46.04;99771.66;1762966;80;21108;-80
2022/11/21 00:57:15;;;;;;;5.83;4.08;;;;;;;18.23;46.01;99772.23;1763220;81;21088;-80
2022/11/21 00:59:41;;;;;;;6.25;4.72;;;;;;;18.23;46.05;99764.78;1763300;81;21002;-81
2022/11/21 01:02:07;;;;;;;5.10;4.22;;;;;;;18.23;46.03;99748.27;1762903;81;21029;-81
2022/11/21 01:04:34;;;;;;;5.28;4.00;;;;;;;18.23;46.03;99740.00;1745575;81;21286;-81
2022/11/21 01:07:00;;;;;;;4.90;3.95;;;;;;;18.22;46.02;99728.73;1763172;81;21061;-79
2022/11/21 01:09:33;;;;;;;5.67;3.80;;;;;;;18.23;46.03;99712.47;1745654;81;21076;-81
2022/11/21 01:11:59;;;;;;;6.50;4.25;;;;;;;18.23;46.04;99707.53;1763290;81;21633;-81
2022/11/21 01:14:26;;;;;;;5.87;4.25;;;;;;;18.22;46.04;99705.91;1762962;81;36827;-80
2022/11/21 01:16:53;;;;;;;5.60;3.90;;;;;;;18.22;46.01;99701.77;1763271;81;22183;-81
2022/11/21 01:19:25;;;;;;;5.75;4.35;;;;;;;18.21;46.05;99714.73;1771354;80;21017;-81
2022/11/21 01:21:52;;;;;;;5.87;4.10;;;;;;;18.22;46.04;99707.28;1763213;81;21053;-80
2022/11/21 01:24:18;;;;;;;5.47;3.90;;;;;;;18.21;46.01;99696.84;1762983;81;21108;-81
2022/11/21 01:26:44;;;;;;;5.47;3.85;;;;;;;18.20;46.01;99695.21;1763228;81;21041;-81
2022/11/21 01:29:11;;;;;;;5.28;4.10;;;;;;;18.20;46.03;99692.45;1763047;81;21115;-81
2022/11/21 01:31:37;;;;;;;5.00;3.67;;;;;;;18.20;46.04;99701.31;1762862;81;21104;-81
2022/11/21 01:34:03;;;;;;;5.35;3.95;;;;;;;18.20;46.04;99712.33;1763152;81;21060;-81
2022/11/21 01:36:33;;;;;;;6.00;3.70;;;;;;;18.20;46.03;99709.57;1762865;81;21072;-80
2022/11/21 01:39:02;;;;;;;5.85;4.00;;;;;;;18.19;46.03;99710.13;1762602;81;21625;-80
2022/11/21 01:41:39;;;;;;;4.97;3.98;;;;;;;18.20;46.03;99737.88;1762736;81;21137;-79
2022/11/21 01:44:17;;;;;;;5.15;3.72;;;;;;;18.19;46.04;99766.56;1761065;80;21069;-80
2022/11/21 01:46:43;;;;;;;4.60;3.58;;;;;;;18.19;46.03;99794.09;1757255;81;21060;-80
2022/11/21 01:49:26;;;;;;;5.90;4.20;;;;;;;18.18;46.02;99804.86;1762535;81;21571;-80
2022/11/21 01:52:04;;;;;;;4.87;3.55;;;;;;;18.19;46.03;99795.47;1763153;81;21123;-80
2022/11/21 01:54:36;;;;;;;4.72;3.80;;;;;;;18.19;46.03;99779.52;1762588;81;20986;-80
2022/11/21 01:57:22;;;;;;;6.35;4.00;;;;;;;18.18;46.02;99758.63;1762987;81;21445;-80
2022/11/21 01:59:59;;;;;;;4.25;3.52;;;;;;;18.17;46.03;99737.16;1762078;80;20988;-79
2022/11/21 02:02:32;;;;;;;5.55;3.75;;;;;;;18.17;46.02;99722.03;1763332;81;20997;-80
2022/11/21 02:04:59;;;;;;;5.33;3.33;;;;;;;18.16;46.02;99717.65;1762948;81;21124;-80
2022/11/21 02:07:25;;;;;;;5.28;3.60;;;;;;;18.17;46.02;99706.08;1763285;81;21121;-80
2022/11/21 02:09:55;;;;;;;4.45;3.60;;;;;;;18.15;46.03;99707.80;1763129;81;20941;-80
2022/11/21 02:12:53;;;;;;;4.50;3.20;;;;;;;18.15;46.03;99735.33;1762834;81;21467;-80
2022/11/21 02:15:21;;;;;;;4.30;3.20;;;;;;;18.15;46.05;99755.16;1762758;81;21029;-80
2022/11/21 02:17:48;;;;;;;7.67;4.05;;;;;;;18.15;46.04;99745.52;1762818;81;21555;-80
2022/11/21 02:20:16;;;;;;;5.17;3.52;;;;;;;18.15;46.03;99720.75;1763372;81;21028;-80
2022/11/21 02:23:13;;;;;;;5.42;3.72;;;;;;;18.14;46.03;99689.66;1763139;81;20985;-80
2022/11/21 02:25:41;;;;;;;3.83;3.10;;;;;;;18.14;46.03;99676.45;1762944;81;21013;-79
2022/11/21 02:28:12;;;;;;;4.70;3.30;;;;;;;18.14;46.03;99670.95;1763217;81;21418;-80
2022/11/21 02:30:40;;;;;;;5.87;3.35;;;;;;;18.13;46.00;99667.95;1752531;80;21044;-80
2022/11/21 02:33:06;;;;;;;5.60;3.25;;;;;;;18.12;46.04;99665.77;1751265;80;21163;-80
2022/11/21 02:35:33;;;;;;;4.35;3.45;;;;;;;18.12;46.01;99654.75;1751402;80;21091;-80
2022/11/21 02:38:22;;;;;;;4.50;3.30;;;;;;;18.12;46.03;99623.09;1751407;80;21560;-80
2022/11/21 02:40:59;;;;;;;4.95;3.50;;;;;;;18.13;46.04;99622.53;1751161;80;21091;-79
2022/11/21 02:43:41;;;;;;;4.65;3.22;;;;;;;18.11;46.01;99628.95;1750479;80;21609;-80
2022/11/21 02:46:08;;;;;;;5.42;3.52;;;;;;;18.12;46.02;99627.82;1729809;81;21391;-80
2022/11/21 02:48:36;;;;;;;4.30;3.10;;;;;;;18.10;46.01;99628.14;1751241;80;21454;-79
2022/11/21 02:51:03;;;;;;;4.97;3.20;;;;;;;18.11;46.01;99623.45;1751214;80;21131;-79
2022/11/21 02:53:29;;;;;;;3.62;2.95;;;;;;;18.10;46.01;99618.51;1729769;81;21024;-79
2022/11/21 02:55:55;;;;;;;4.70;3.02;;;;;;;18.10;46.01;99617.12;1751529;80;21082;-79
2022/11/21 02:58:21;;;;;;;4.15;2.90;;;;;;;18.10;46.00;99608.06;1751264;80;21110;-80
2022/11/21 03:00:48;;;;;;;4.25;3.00;;;;;;;18.09;46.01;99601.75;1751572;80;21515;-80
2022/11/21 03:03:14;;;;;;;4.08;2.87;;;;;;;18.10;45.99;99584.67;1746515;80;21114;-80
2022/11/21 03:05:40;;;;;;;4.53;3.10;;;;;;;18.09;45.98;99574.22;1745927;80;21113;-80
2022/11/21 03:08:09;;;;;;;4.62;3.37;;;;;;;18.09;45.98;99559.08;1744992;80;21543;-80
2022/11/21 03:10:35;;;;;;;4.55;3.00;;;;;;;18.10;45.97;99567.59;1723702;82;21231;-79
2022/11/21 03:13:01;;;;;;;3.37;2.42;;;;;;;18.09;45.95;99554.95;1745888;80;21509;-80
2022/11/21 03:15:30;;;;;;;3.83;3.10;;;;;;;18.10;45.94;99551.64;1745502;80;21472;-79
2022/11/21 03:17:56;;;;;;;3.60;2.72;;;;;;;18.09;45.95;99530.75;1745861;80;21023;-79
2022/11/21 03:20:31;;;;;;;4.25;3.00;;;;;;;18.08;45.95;99505.17;1745965;80;21089;-79
2022/11/21 03:22:57;;;;;;;3.75;2.60;;;;;;;18.09;45.94;99505.98;1745230;80;21822;-79
2022/11/21 03:25:30;;;;;;;3.30;2.70;;;;;;;18.08;45.93;99503.79;1725649;80;21564;-80
2022/11/21 03:27:56;;;;;;;4.15;3.22;;;;;;;18.06;45.93;99496.45;1745728;80;21026;-80
2022/11/21 03:30:24;;;;;;;3.60;2.80;;;;;;;18.07;45.93;99483.50;1745758;82;21085;-80
2022/11/21 03:32:52;;;;;;;5.10;2.87;;;;;;;18.07;45.92;99480.75;1750989;80;21559;-80
2022/11/21 03:35:19;;;;;;;3.47;2.52;;;;;;;18.06;45.92;99482.69;1780638;79;21680;-79
2022/11/21 03:37:47;;;;;;;4.05;2.65;;;;;;;18.07;45.89;99471.11;1751335;80;21553;-80
2022/11/21 03:40:13;;;;;;;3.67;2.80;;;;;;;18.06;45.88;99454.36;1755604;80;21091;-80
2022/11/21 03:42:40;;;;;;;4.35;2.90;;;;;;;18.04;45.89;99451.93;1751734;80;21091;-80
2022/11/21 03:45:08;;;;;;;4.08;2.90;;;;;;;18.05;45.89;99439.79;1751438;80;22200;-80
2022/11/21 03:47:34;;;;;;;3.17;2.17;;;;;;;18.04;45.88;99430.48;1751646;80;21127;-80
2022/11/21 03:50:02;;;;;;;2.98;2.30;;;;;;;18.05;45.86;99426.59;1751743;80;21023;-80
2022/11/21 03:52:29;;;;;;;3.15;2.37;;;;;;;18.04;45.85;99417.53;1751333;80;21067;-80
2022/11/21 03:54:55;;;;;;;3.05;2.40;;;;;;;18.04;45.85;99409.27;1751754;80;21005;-80
2022/11/21 03:57:22;;;;;;;3.85;2.52;;;;;;;18.04;45.83;99400.20;1751679;80;21083;-78
2022/11/21 03:59:48;;;;;;;4.62;2.40;;;;;;;18.04;45.83;99396.08;1751535;80;22136;-80
2022/11/21 04:02:14;;;;;;;2.67;2.30;;;;;;;18.05;45.82;99384.75;1751786;80;21040;-80
2022/11/21 04:04:40;;;;;;;3.47;2.30;;;;;;;18.05;45.81;99383.94;1751502;81;21052;-80
2022/11/21 04:07:07;;;;;;;4.87;2.80;;;;;;;18.08;45.78;99397.02;1751376;80;21534;-80
2022/11/21 04:09:33;;;;;;;3.60;2.33;;;;;;;18.09;45.75;99384.31;1751951;80;21134;-80
2022/11/21 04:11:59;;;;;;;3.55;2.02;;;;;;;18.12;45.68;99382.25;1752066;80;21145;-80
2022/11/21 04:14:26;;;;;;;3.30;2.05;;;;;;;18.15;45.62;99384.36;1751693;80;20990;-80
2022/11/21 04:16:52;;;;;;;2.52;2.00;;;;;;;18.20;45.58;99398.50;1751880;80;21435;-80
2022/11/21 04:19:18;;;;;;;3.55;2.55;;;;;;;18.25;45.53;99402.41;1751966;81;21052;-80
2022/11/21 04:21:44;;;;;;;2.85;2.10;;;;;;;18.29;45.46;99406.09;1781308;80;21008;-80
2022/11/21 04:24:11;;;;;;;3.33;2.40;;;;;;;18.37;45.41;99467.77;1751683;81;21097;-79
2022/11/21 04:26:37;;;;;;;2.70;2.15;;;;;;;18.44;45.35;99678.70;1751425;81;21373;-80
2022/11/21 04:29:03;;;;;;;2.62;2.10;;;;;;;18.53;45.27;99697.42;1751553;80;21068;-80
2022/11/21 04:31:30;;;;;;;2.55;1.90;;;;;;;18.60;45.12;99545.63;1751403;80;20956;-80
2022/11/21 04:33:56;;;;;;;3.45;2.02;;;;;;;18.68;45.06;99698.23;1751569;80;21122;-80
2022/11/21 04:36:22;;;;;;;2.87;1.98;;;;;;;18.79;44.95;99753.80;1751516;80;21067;-80
2022/11/21 04:38:48;;;;;;;2.80;1.90;;;;;;;18.89;44.84;99602.64;1751436;80;21680;-80
2022/11/21 04:41:15;;;;;;;2.30;1.75;;;;;;;18.98;44.72;99605.34;1751666;81;21035;-80
2022/11/21 04:43:41;;;;;;;2.72;1.90;;;;;;;19.06;44.62;99596.20;1751301;80;21099;-80
2022/11/21 04:46:07;;;;;;;3.05;1.82;;;;;;;19.16;44.51;99591.67;1775190;79;21088;-80
2022/11/21 04:48:39;;;;;;;2.30;1.72;;;;;;;19.25;44.41;99567.59;1757536;79;21039;-80
2022/11/21 04:51:06;;;;;;;2.62;1.75;;;;;;;19.36;44.30;99558.31;1700703;83;21542;-80
2022/11/21 04:53:32;;;;;;;2.45;1.80;;;;;;;19.47;44.17;99565.06;1721442;81;21111;-80
2022/11/21 04:55:59;;;;;;;2.80;2.10;;;;;;;19.56;44.05;99557.52;1721320;81;21812;-80
2022/11/21 04:58:25;;;;;;;2.72;2.00;;;;;;;19.65;43.92;99522.34;1700088;83;20984;-80
2022/11/21 05:00:51;;;;;;;3.45;1.57;;;;;;;19.76;43.80;99492.36;1720576;82;21001;-80
2022/11/21 05:03:17;;;;;;;2.00;1.70;;;;;;;19.84;43.70;99502.48;1721198;83;21744;-80
2022/11/21 05:05:44;;;;;;;2.22;1.60;;;;;;;19.91;43.60;99502.14;1721095;82;21051;-80
2022/11/21 05:08:10;;;;;;;2.20;1.70;;;;;;;19.99;43.50;99494.89;1721465;81;21088;-80
2022/11/21 05:13:19;;;;;;;4.85;2.08;;;;;;;20.08;43.38;99482.59;1720889;82;21048;-80
2022/11/21 05:13:20;;;;;;;2.72;1.60;;;;;;;20.14;43.29;99444.52;1700934;83;21903;-81
2022/11/21 05:15:50;;;;;;;2.30;1.70;;;;;;;20.20;43.21;99408.59;1720992;82;21598;-79
2022/11/21 05:18:14;;;;;;;3.45;1.67;;;;;;;20.26;43.12;99409.97;1720882;83;21044;-80
2022/11/21 05:20:41;;;;;;;2.60;1.95;;;;;;;20.34;43.06;99417.92;1731281;80;21024;-80
2022/11/21 05:23:07;;;;;;;3.40;1.87;;;;;;;20.38;42.96;99382.91;1755109;80;21542;-80
2022/11/21 05:25:33;;;;;;;2.83;1.85;;;;;;;20.45;42.90;99412.16;1751663;81;22021;-83
2022/11/21 05:28:00;;;;;;;2.10;1.47;;;;;;;20.50;42.86;99418.79;1751530;80;21024;-87
2022/11/21 05:30:26;;;;;;;3.08;1.67;;;;;;;20.56;42.77;99402.78;1761547;80;21025;-80
2022/11/21 05:32:53;;;;;;;2.58;1.62;;;;;;;20.59;42.73;99402.06;1772101;80;21085;-82
2022/11/21 05:35:19;;;;;;;3.42;1.55;;;;;;;20.64;42.68;99418.41;1775804;80;21072;-82
2022/11/21 05:37:46;;;;;;;3.42;1.72;;;;;;;20.67;42.61;99432.32;1753654;80;21851;-77
2022/11/21 05:40:12;;;;;;;2.50;1.72;;;;;;;20.72;42.58;99452.00;1759433;80;21040;-80
2022/11/21 05:45:34;;;;;;;2.62;1.45;;;;;;;20.76;42.46;99445.99;1734364;81;21044;-81
2022/11/21 05:48:06;;;;;;;2.80;1.47;;;;;;;20.78;42.42;99427.92;1739576;82;21042;-84
2022/11/21 05:50:31;;;;;;;2.70;1.80;;;;;;;20.78;42.35;99429.30;1740286;80;21173;-82
2022/11/21 05:53:03;;;;;;;2.92;1.50;;;;;;;20.80;42.31;99422.83;1743396;81;20971;-82
2022/11/21 05:55:35;;;;;;;9.08;2.25;;;;;;;20.83;42.25;99413.05;1747076;81;21107;-80
2022/11/21 05:58:02;;;;;;;7.28;1.55;;;;;;;20.84;42.26;99404.38;1757574;81;21037;-83
2022/11/21 06:00:28;;;;;;;3.77;1.50;;;;;;;20.87;42.26;99404.27;1756670;80;21032;-81
2022/11/21 06:05:41;;;;;;;9.40;1.77;;;;;;;20.89;42.24;99402.75;1744454;80;21073;-86
2022/11/21 06:08:07;;;;;;;5.72;1.32;;;;;;;20.89;42.30;99412.42;1754494;81;21432;-84
2022/11/21 06:10:34;;;;;;;2.37;1.22;;;;;;;20.89;42.26;99416.57;1755912;80;21087;-84
2022/11/21 06:13:00;;;;;;;5.03;1.65;;;;;;;20.89;42.19;99429.02;1754480;80;21646;-80
2022/11/21 06:15:27;;;;;;;6.03;1.40;;;;;;;20.90;42.14;99438.92;1757816;81;21144;-82
2022/11/21 06:17:54;;;;;;;3.47;1.60;;;;;;;20.88;42.10;99441.80;1760753;80;21108;-83
2022/11/21 06:20:20;;;;;;;5.58;1.60;;;;;;;20.89;42.10;99448.94;1758548;80;21041;-82
2022/11/21 06:22:47;;;;;;;7.45;1.72;;;;;;;20.90;42.13;99441.69;1756858;80;21695;-83
2022/11/21 06:25:13;;;;;;;4.62;1.82;;;;;;;20.92;42.22;99433.02;1743520;80;21310;-83
2022/11/21 06:27:40;;;;;;;6.65;1.55;;;;;;;20.95;42.30;99436.48;1763620;80;21117;-81
2022/11/21 06:30:12;;;;;;;6.97;2.00;;;;;;;20.96;42.34;99443.02;1761555;79;21111;-80
2022/11/21 06:32:39;;;;;;;7.58;2.10;;;;;;;20.97;42.40;99434.97;1727649;80;21069;-83
2022/11/21 06:35:06;;;;;;;7.65;1.75;;;;;;;21.02;42.46;99438.63;1748371;79;21040;-84
2022/11/21 06:37:32;;;;;;;4.00;1.90;;;;;;;21.05;42.46;99431.81;1747676;80;21095;-82
2022/11/21 06:39:59;;;;;;;4.47;1.87;;;;;;;21.07;42.45;99430.08;1748030;79;21265;-81
2022/11/21 06:42:25;;;;;;;5.58;2.17;;;;;;;21.10;42.45;99419.11;1745157;79;21073;-83
2022/11/21 06:44:52;;;;;;;5.90;2.05;;;;;;;21.12;42.43;99425.14;1746580;80;21049;-81
2022/11/21 06:47:18;;;;;;;8.60;2.80;;;;;;;21.14;42.43;99422.00;1749096;80;21051;-80
2022/11/21 06:49:45;;;;;;;6.35;2.37;;;;;;;21.15;42.40;99429.95;1743209;80;21132;-85
2022/11/21 06:52:11;;;;;;;14.15;2.98;;;;;;;21.17;42.43;99433.19;1751713;80;21124;-84
2022/11/21 06:54:38;;;;;;;18.17;3.02;;;;;;;21.20;42.55;99423.36;1779973;78;21557;-85
2022/11/21 06:57:04;;;;;;;18.52;4.50;;;;;;;21.24;42.69;99433.36;1746452;80;21043;-84
2022/11/21 06:59:30;;;;;;;16.27;2.58;;;;;;;21.28;42.81;99432.07;1750030;79;21083;-83
2022/11/21 07:01:57;;;;;;;17.52;2.58;;;;;;;21.30;42.88;99436.69;1750796;78;21585;-80
2022/11/21 07:04:30;;;;;;;10.95;2.08;;;;;;;21.31;43.02;99430.77;1750019;78;21258;-79
2022/11/21 07:06:56;;;;;;;9.90;2.22;;;;;;;21.34;43.08;99422.36;1755087;79;21122;-80
2022/11/21 07:09:22;;;;;;;10.43;2.47;;;;;;;21.34;43.18;99420.98;1729113;80;21821;-80
2022/11/21 07:11:49;;;;;;;13.08;2.42;;;;;;;21.35;43.26;99419.22;1743918;80;21060;-83
2022/11/21 07:14:16;;;;;;;7.12;2.45;;;;;;;21.37;43.31;99427.17;1751720;80;21190;-84
2022/11/21 07:16:49;;;;;;;10.60;2.33;;;;;;;21.37;43.34;99415.53;1751124;80;21003;-84
2022/11/21 07:19:15;;;;;;;12.63;2.37;;;;;;;21.38;43.41;99417.72;1746245;80;21063;-84
2022/11/21 07:21:42;;;;;;;8.73;2.80;;;;;;;21.37;43.48;99426.60;1743280;80;21031;-86
2022/11/21 07:24:08;;;;;;;11.08;2.98;;;;;;;21.38;43.51;99436.52;1726973;80;20967;-78
2022/11/21 07:26:35;;;;;;;8.63;3.22;;;;;;;21.39;43.49;99435.33;1714532;82;21086;-80
2022/11/21 07:29:01;;;;;;;12.60;4.55;;;;;;;21.37;43.46;99421.06;1713138;81;21095;-79
2022/11/21 07:31:28;;;;;;;12.35;3.12;;;;;;;21.36;43.41;99425.56;1724942;81;22107;-78
2022/11/21 07:33:54;;;;;;;9.90;3.12;;;;;;;21.35;43.38;99430.86;1720340;82;21064;-79
2022/11/21 07:36:20;;;;;;;8.30;3.55;;;;;;;21.35;43.35;99428.91;1742020;80;21087;-81
2022/11/21 07:38:47;;;;;;;12.28;3.70;;;;;;;21.35;43.32;99434.44;1742134;80;21542;-81
2022/11/21 07:41:13;;;;;;;11.88;4.20;;;;;;;21.37;43.31;99431.33;1746210;80;21786;-81
2022/11/21 07:43:40;;;;;;;9.58;3.85;;;;;;;21.37;43.27;99424.41;1716225;80;21085;-83
2022/11/21 07:46:06;;;;;;;17.73;3.90;;;;;;;21.37;43.26;99424.41;1744095;80;21055;-80
2022/11/21 07:48:34;;;;;;;11.00;3.65;;;;;;;21.38;43.27;99430.17;1743275;82;21111;-86
2022/11/21 07:51:03;;;;;;;10.05;3.52;;;;;;;21.38;43.77;99439.86;1719735;82;21627;-83
2022/11/21 07:53:31;;;;;;;15.38;4.05;;;;;;;21.41;43.72;99451.59;1741074;81;21121;-86
2022/11/21 07:55:58;;;;;;;14.15;3.60;;;;;;;21.39;43.88;99443.63;1748500;80;21400;-85
2022/11/21 07:58:28;;;;;;;11.88;3.70;;;;;;;21.37;43.91;99445.97;1740560;80;20937;-82
2022/11/21 08:00:54;;;;;;;16.50;3.85;;;;;;;21.37;44.05;99457.61;1741236;80;21044;-83
2022/11/21 08:03:21;;;;;;;15.98;3.52;;;;;;;21.37;44.08;99463.95;1742677;80;21119;-79
2022/11/21 08:05:48;;;;;;;16.57;3.00;;;;;;;21.38;44.26;99460.03;1742534;79;21119;-79
2022/11/21 08:08:14;;;;;;;14.10;3.10;;;;;;;21.38;44.39;99463.38;1745581;79;21119;-82
2022/11/21 08:10:45;;;;;;;9.53;3.40;;;;;;;21.37;44.44;99458.99;1742676;80;21084;-85
2022/11/21 08:13:12;;;;;;;9.90;2.90;;;;;;;21.36;44.54;99476.74;1745431;80;21074;-82
2022/11/21 08:15:38;;;;;;;11.28;3.20;;;;;;;21.34;44.60;99466.02;1746604;80;21044;-81
2022/11/21 08:18:13;;;;;;;16.45;3.22;;;;;;;21.35;44.64;99468.21;1754395;80;21501;-84
2022/11/21 08:20:40;;;;;;;9.73;3.30;;;;;;;21.35;44.66;99487.58;1741398;81;21040;-83
2022/11/21 08:23:06;;;;;;;11.50;3.90;;;;;;;21.33;44.66;99492.10;1761034;79;21114;-83
2022/11/21 08:25:33;;;;;;;8.88;2.92;;;;;;;21.32;44.70;99473.89;1744455;80;21033;-85
2022/11/21 08:28:01;;;;;;;10.18;3.50;;;;;;;21.30;44.72;99499.70;1751695;80;21104;-84
2022/11/21 08:30:28;;;;;;;17.30;3.83;;;;;;;21.28;44.71;99493.73;1736776;79;21237;-83
2022/11/21 08:32:54;;;;;;;12.43;3.72;;;;;;;21.27;44.69;99492.13;1755231;80;21052;-82
2022/11/21 08:35:20;;;;;;;15.63;4.47;;;;;;;21.24;44.66;99503.09;1736025;80;21092;-82
2022/11/21 08:37:47;;;;;;;8.38;4.53;;;;;;;21.22;44.66;99505.39;1785208;79;21610;-82
2022/11/21 08:40:14;;;;;;;10.58;4.83;;;;;;;21.18;44.64;99492.05;1754582;80;21090;-81
2022/11/21 08:42:40;;;;;;;15.03;5.53;;;;;;;21.14;44.63;99492.52;1718919;81;21972;-80
2022/11/21 08:45:08;;;;;;;9.98;5.90;;;;;;;21.09;44.68;99499.08;1707052;82;21153;-79
2022/11/21 08:47:35;;;;;;;19.48;6.05;;;;;;;21.06;44.67;99497.60;1704401;82;21154;-82
2022/11/21 08:50:02;;;;;;;10.50;4.42;;;;;;;21.01;44.64;99502.80;1751243;80;21096;-83
2022/11/21 08:52:28;;;;;;;12.78;4.03;;;;;;;20.97;44.94;99511.00;1751667;80;21064;-83
2022/11/21 08:54:54;;;;;;;17.85;3.85;;;;;;;20.92;45.16;99515.39;1750456;80;21174;-80
2022/11/21 08:57:21;;;;;;;12.15;3.45;;;;;;;20.86;45.77;99518.77;1762497;79;21049;-84
2022/11/21 08:59:47;;;;;;;31.25;4.62;;;;;;;20.86;46.02;99532.02;1758724;79;21124;-83
2022/11/21 09:02:14;;;;;;;16.67;3.80;;;;;;;20.87;46.45;99537.78;1755206;80;21797;-81
2022/11/21 09:04:40;;;;;;;14.60;3.17;;;;;;;20.86;46.72;99540.30;1748783;80;21446;-81
2022/11/21 09:07:07;;;;;;;16.62;3.47;;;;;;;20.85;46.79;99551.70;1758099;80;21116;-82
2022/11/21 09:09:33;;;;;;;9.70;3.65;;;;;;;20.80;46.66;99554.13;1775313;78;21060;-81
2022/11/21 09:12:00;;;;;;;14.98;3.40;;;;;;;20.76;46.70;99562.89;1752974;80;21057;-79
